Nearby METAR Reports

 

K27K - Georgetown, Kentucky, USA
Distance from station: NE 1mi, 3km
Updated: Tue, 10-Dec-2019 6:55pm EST
Clear
Clear
 Wind from WSW
Wind: WSW 5 mph , 7 km/h
Temperature: 28°F , -2°C
Wind Chill: 22°F , -6°C
Dew Point: 16°F , -9°C
Humidity: 59%
Barometer: 30.33 inHg , 1027.1 hPa
Clouds: Clear
Visibility: 10 miles , 16 km
2019/12/10 23:55 K27K 102355Z AUTO 25004KT 10SM CLR M02/M09 A3033 RMK AO1
KLEX - Lexington, Kentucky, USA
Distance from station: SE 25mi, 38km
Updated: Tue, 10-Dec-2019 5:54pm EST
Clear
Clear
 Wind from WSW
Wind: WSW 6 mph , 9 km/h
Temperature: 30°F , -1°C
Wind Chill: 24°F , -4°C
Dew Point: 12°F , -11°C
Humidity: 47%
Barometer: 30.30 inHg , 1026.1 hPa
Clouds: Clear
Visibility: 10 miles , 16 km
2019/12/10 22:54 KLEX 102254Z 24005KT 10SM CLR M01/M11 A3030 RMK AO2 SLP268 T10111106
 
KFFT - Frankfort, Kentucky, USA
Distance from station: WNW 24mi, 38km
Updated: Tue, 10-Dec-2019 6:53pm EST
Clear
Clear
 Wind from WSW
Wind: WSW 5 mph , 7 km/h
Temperature: 30°F , -1°C
Wind Chill: 25°F , -4°C
Dew Point: 14°F , -10°C
Humidity: 51%
Barometer: 30.33 inHg , 1027.1 hPa
Clouds: Clear
Visibility: 10 miles , 16 km
2019/12/10 23:53 KFFT 102353Z AUTO 25004KT 10SM CLR M01/M10 A3033 RMK AO2 SLP278 T10111100
KIOB - Mount Sterling, Kentucky, USA
Distance from station: E 28mi, 46km
Updated: Tue, 10-Dec-2019 6:35pm EST
Mostly cloudy
Mostly cloudy
 Wind from calm
Wind: Calm
Temperature: 30°F , -1°C
Dew Point: 18°F , -8°C
Humidity: 59%
Barometer: 30.32 inHg , 1026.8 hPa
Clouds: Mostly cloudy
Visibility: 10 miles , 16 km
Cloud details: Mostly cloudy 12000 ft
2019/12/10 23:35 KIOB 102335Z AUTO 00000KT 10SM BKN120 M01/M08 A3032 RMK AO2
 
KDVK - Danville, Kentucky, USA
Distance from station: SSW 35mi, 56km
Updated: Tue, 10-Dec-2019 6:35pm EST
Mostly cloudy
Mostly cloudy
 Wind from W
Wind: W 3 mph , 6 km/h
Temperature: 30°F , -1°C
Dew Point: 19°F , -7°C
Humidity: 64%
Barometer: 30.35 inHg , 1027.8 hPa
Clouds: Mostly cloudy
Visibility: 10 miles , 16 km
Cloud details: Mostly cloudy 12000 ft
2019/12/10 23:35 KDVK 102335Z AUTO 27003KT 10SM BKN120 M01/M07 A3035 RMK AO2
K6I2 - Springfield, Kentucky, USA
Distance from station: SW 49mi, 80km
Updated: Tue, 10-Dec-2019 6:30pm EST
Clear
Clear
 Wind from SW
Wind: SW 3 mph , 6 km/h
Temperature: 30°F , -1°C
Dew Point: 18°F , -8°C
Humidity: 59%
Barometer: 30.35 inHg , 1027.8 hPa
Clouds: Clear
Visibility: 10 miles , 16 km
2019/12/10 23:30 K6I2 102330Z AUTO 23003KT 10SM CLR M01/M08 A3035 RMK AO2
 
KSYM - Morehead, Kentucky, USA
Distance from station: ENE 51mi, 83km
Updated: Tue, 10-Dec-2019 6:55pm EST
Mostly cloudy
Mostly cloudy
 Wind from calm
Wind: Calm
Temperature: 28°F , -2°C
Dew Point: 14°F , -10°C
Humidity: 55%
Barometer: 30.33 inHg , 1027.1 hPa
Clouds: Mostly cloudy
Visibility: 10 miles , 16 km
Cloud details: Few Clouds 9000 ft
Mostly cloudy 11000 ft
2019/12/10 23:55 KSYM 102355Z AUTO 00000KT 10SM FEW090 BKN110 M02/M10 A3033 RMK AO2
KFGX - Flemingsburg, Kentucky, USA
Distance from station: NE 54mi, 87km
Updated: Tue, 10-Dec-2019 6:35pm EST
Clear
Clear
 Wind from W
Wind: W 9 mph , 15 km/h
Temperature: 27°F , -3°C
Wind Chill: 18°F , -8°C
Dew Point: 16°F , -9°C
Humidity: 64%
Barometer: 30.32 inHg , 1026.8 hPa
Clouds: Clear
Visibility: 10 miles , 16 km
2019/12/10 23:35 KFGX 102335Z AUTO 28008KT 10SM CLR M03/M09 A3032 RMK AO2 T10261089
 
KLOU - Louisville/Bowmn, Kentucky, USA
Distance from station: W 64mi, 104km
Updated: Tue, 10-Dec-2019 6:53pm EST
Clear
Clear
 Wind from WSW
Wind: WSW 10 mph , 17 km/h
Temperature: 30°F , -1°C
Wind Chill: 21°F , -6°C
Dew Point: 12°F , -11°C
Humidity: 47%
Barometer: 30.37 inHg , 1028.4 hPa
Clouds: Clear
Visibility: 10 miles , 16 km
2019/12/10 23:53 KLOU 102353Z 25009KT 10SM CLR M01/M11 A3037 RMK AO2 SLP288 T10111106
KSDF - Louisville, Kentucky, USA
Distance from station: W 68mi, 109km
Updated: Tue, 10-Dec-2019 5:56pm EST
Overcast
Overcast
 Wind from WSW
Wind: WSW 8 mph , 13 km/h
Temperature: 30°F , -1°C
Wind Chill: 22°F , -6°C
Dew Point: 12°F , -11°C
Humidity: 47%
Barometer: 30.33 inHg , 1027.1 hPa
Clouds: Overcast
Visibility: 10 miles , 16 km
Cloud details: Overcast 13000 ft
2019/12/10 22:56 KSDF 102256Z 25007KT 10SM OVC130 M01/M11 A3033 RMK AO2 SLP275 T10111106
 
KSME - Somerset, Kentucky, USA
Distance from station: S 69mi, 111km
Updated: Tue, 10-Dec-2019 6:35pm EST
Overcast
Overcast
 Wind from W
Wind: W 6 mph , 9 km/h
Temperature: 32°F , 0°C
Wind Chill: 26°F , -3°C
Dew Point: 14°F , -10°C
Humidity: 47%
Barometer: 30.37 inHg , 1028.4 hPa
Clouds: Overcast
Visibility: 10 miles , 16 km
Cloud details: Partly cloudy 7500 ft
Overcast 9500 ft
2019/12/10 23:35 KSME 102335Z AUTO 26005KT 10SM SCT075 OVC095 00/M10 A3037 RMK AO2
KCVG - Covington, Kentucky, USA
Distance from station: N 70mi, 113km
Updated: Tue, 10-Dec-2019 6:52pm EST
Overcast
Overcast
 Wind from WSW
Wind: WSW 7 mph , 11 km/h
Temperature: 27°F , -3°C
Wind Chill: 19°F , -7°C
Dew Point: 12°F , -11°C
Humidity: 54%
Barometer: 30.30 inHg , 1026.1 hPa
Clouds: Overcast
Visibility: 10 miles , 16 km
Cloud details: Overcast 20000 ft
2019/12/10 23:52 KCVG 102352Z 25006KT 10SM OVC200 M03/M11 A3030 RMK AO2 SLP267 T10281111 11022 21028 52026
 
KLOZ - London, Kentucky, USA
Distance from station: SSE 70mi, 113km
Updated: Tue, 10-Dec-2019 6:53pm EST
Overcast
Overcast
 Wind from S
Wind: S 5 mph , 7 km/h
Temperature: 30°F , -1°C
Wind Chill: 25°F , -4°C
Dew Point: 25°F , -4°C
Humidity: 80%
Barometer: 30.32 inHg , 1026.8 hPa
Clouds: Overcast
Visibility: 10 miles , 16 km
Cloud details: Mostly cloudy 5500 ft
Overcast 7500 ft
2019/12/10 23:53 KLOZ 102353Z AUTO 18004KT 10SM BKN055 OVC075 M01/M04 A3032 RMK AO2 SNB04E34 SLP272 P0000 60001 T10111044 10011 21011 53022
KJKL - Noctor/Jackson, Kentucky, USA
Distance from station: ESE 72mi, 115km
Updated: Tue, 10-Dec-2019 6:53pm EST
Overcast
Overcast
 Wind from calm
Wind: Calm
Temperature: 28°F , -2°C
Dew Point: 21°F , -6°C
Humidity: 74%
Barometer: 30.30 inHg , 1026.1 hPa
Clouds: Overcast
Visibility: 10 miles , 16 km
Cloud details: Mostly cloudy 6000 ft
Overcast 7500 ft
2019/12/10 23:53 KJKL 102353Z AUTO 00000KT 10SM BKN060 OVC075 M02/M06 A3030 RMK AO2 SLP265 60004 T10221056 10006 21028 53016
 
KIMS - Madison, Indiana, USA
Distance from station: NW 72mi, 116km
Updated: Tue, 10-Dec-2019 6:35pm EST
Clear
Clear
 Wind from WSW
Wind: WSW 8 mph , 13 km/h
Temperature: 27°F , -3°C
Wind Chill: 19°F , -7°C
Dew Point: 16°F , -9°C
Humidity: 64%
Barometer: 30.34 inHg , 1027.4 hPa
Clouds: Clear
Visibility: 10 miles , 16 km
2019/12/10 23:35 KIMS 102335Z AUTO 25007KT 10SM CLR M03/M09 A3034 RMK AO1
KLUK - Cincinnat/Lunken, Ohio, USA
Distance from station: N 73mi, 118km
Updated: Tue, 10-Dec-2019 6:53pm EST
Clear
Clear
 Wind from WSW
Wind: WSW 12 mph , 19 km/h
Temperature: 28°F , -2°C
Wind Chill: 18°F , -8°C
Dew Point: 14°F , -10°C
Humidity: 55%
Barometer: 30.34 inHg , 1027.4 hPa
Clouds: Clear
Visibility: 10 miles , 16 km
2019/12/10 23:53 KLUK 102353Z 25010KT 10SM CLR M02/M10 A3034 RMK AO2 SLP277 T10221100 11017 21022 52026
 
KI69 - Batavia, Ohio, USA
Distance from station: NNE 74mi, 119km
Updated: Tue, 10-Dec-2019 6:35pm EST
Clear
Clear
 Wind from WSW
Wind: WSW 7 mph , 11 km/h
Temperature: 28°F , -2°C
Wind Chill: 21°F , -6°C
Dew Point: 14°F , -10°C
Humidity: 55%
Barometer: 30.31 inHg , 1026.4 hPa
Clouds: Clear
Visibility: 10 miles , 16 km
2019/12/10 23:35 KI69 102335Z AUTO 25006KT 10SM CLR M02/M10 A3031 RMK AO2 T10231099